createdAt,value
2019-04-27T00:11:10.775Z,12.90
2019-04-27T00:13:50.676Z,12.80
2019-04-27T00:17:41.229Z,12.70
2019-04-27T00:20:43.410Z,12.80
2019-04-27T00:23:25.900Z,12.80
2019-04-27T00:30:19.685Z,12.60
2019-04-27T00:37:03.723Z,12.50
2019-04-27T00:46:30.985Z,12.50
2019-04-27T00:50:19.190Z,12.40
2019-04-27T00:52:37.090Z,12.40
2019-04-27T00:55:54.504Z,12.30
2019-04-27T00:59:19.107Z,12.30
2019-04-27T01:02:57.163Z,12.20
2019-04-27T01:13:05.591Z,11.90
2019-04-27T01:15:59.725Z,11.80
2019-04-27T01:29:10.300Z,11.70
2019-04-27T01:32:59.546Z,11.70
2019-04-27T01:38:03.114Z,11.70
2019-04-27T01:43:39.498Z,11.50
2019-04-27T01:46:15.041Z,11.40
2019-04-27T01:48:48.896Z,11.40
2019-04-27T01:51:21.067Z,11.40
2019-04-27T01:53:52.691Z,11.40
2019-04-27T01:56:24.140Z,11.50
2019-04-27T01:58:55.604Z,11.60
2019-04-27T02:01:48.992Z,11.60
2019-04-27T02:04:39.544Z,11.60
2019-04-27T02:07:11.520Z,11.50
2019-04-27T02:09:42.838Z,11.50
2019-04-27T02:12:14.561Z,11.40
2019-04-27T02:14:51.177Z,11.30
2019-04-27T02:17:24.210Z,11.30
2019-04-27T02:19:56.049Z,11.30
2019-04-27T02:22:29.615Z,11.20
2019-04-27T02:25:01.635Z,11.30
2019-04-27T02:27:35.019Z,11.30
2019-04-27T02:30:23.263Z,11.30
2019-04-27T02:33:22.446Z,11.30
2019-04-27T02:35:54.162Z,11.30
2019-04-27T02:38:25.915Z,11.30
2019-04-27T02:41:02.842Z,11.30
2019-04-27T02:43:46.142Z,11.30
2019-04-27T02:46:20.003Z,11.30
2019-04-27T02:49:00.230Z,11.40
2019-04-27T02:51:42.480Z,11.40
2019-04-27T02:54:13.084Z,11.50
2019-04-27T02:56:44.665Z,11.60
2019-04-27T02:59:19.678Z,11.80
2019-04-27T03:01:56.849Z,11.90
2019-04-27T03:04:30.273Z,12.00
2019-04-27T03:07:02.487Z,12.20
2019-04-27T03:09:33.996Z,12.30
2019-04-27T03:12:05.799Z,12.30
2019-04-27T03:14:50.772Z,12.30
2019-04-27T03:17:50.985Z,12.30
2019-04-27T03:20:47.371Z,12.40
2019-04-27T03:23:19.988Z,12.70
2019-04-27T03:26:12.120Z,12.90
2019-04-27T03:28:44.033Z,13.10
2019-04-27T03:31:15.934Z,13.20
2019-04-27T03:33:52.799Z,13.20
2019-04-27T03:36:21.826Z,13.10
2019-04-27T03:38:53.321Z,12.90
2019-04-27T03:41:29.290Z,12.70
2019-04-27T03:44:00.931Z,12.50
2019-04-27T03:46:32.795Z,12.40
2019-04-27T03:49:04.871Z,12.30
2019-04-27T03:51:44.477Z,12.10
2019-04-27T03:54:22.151Z,12.10
2019-04-27T03:57:02.544Z,12.00
2019-04-27T03:59:52.106Z,11.90
2019-04-27T04:02:24.107Z,11.90
2019-04-27T04:04:55.975Z,11.70
2019-04-27T04:07:30.041Z,11.70
2019-04-27T04:10:01.824Z,11.80
2019-04-27T04:12:43.611Z,11.80
2019-04-27T04:15:24.073Z,11.80
2019-04-27T04:17:56.267Z,11.70
2019-04-27T04:20:30.291Z,11.60
2019-04-27T04:23:03.304Z,11.60
2019-04-27T04:25:33.427Z,11.50
2019-04-27T04:28:05.761Z,11.40
2019-04-27T04:30:40.014Z,11.40
2019-04-27T04:33:10.386Z,11.50
2019-04-27T04:35:41.792Z,11.40
2019-04-27T04:38:13.960Z,11.40
2019-04-27T04:40:51.527Z,11.50
2019-04-27T05:02:35.943Z,11.50
2019-04-27T05:21:08.685Z,11.40
2019-04-27T05:23:41.149Z,11.60
2019-04-27T05:26:12.884Z,11.90
2019-04-27T05:29:15.231Z,12.00
2019-04-27T05:31:59.045Z,12.10
2019-04-27T05:38:35.411Z,12.10
2019-04-27T05:56:31.072Z,12.30
2019-04-27T05:59:03.133Z,12.30
2019-04-27T06:01:35.385Z,12.40
2019-04-27T06:04:19.764Z,12.40
2019-04-27T06:06:52.310Z,12.40
2019-04-27T06:09:25.469Z,12.30
2019-04-27T06:11:59.047Z,12.20
2019-04-27T06:14:31.347Z,12.00
2019-04-27T06:17:02.859Z,11.90
2019-04-27T06:19:35.409Z,11.70
2019-04-27T06:22:07.074Z,11.70
2019-04-27T06:24:42.169Z,11.60
2019-04-27T06:27:14.090Z,11.60
2019-04-27T06:29:45.774Z,11.60
2019-04-27T06:32:19.183Z,11.70
2019-04-27T06:34:49.577Z,11.70
2019-04-27T06:37:21.595Z,11.60
2019-04-27T06:39:53.092Z,11.60
2019-04-27T06:42:25.150Z,11.80
2019-04-27T06:44:57.388Z,11.90
2019-04-27T06:47:29.615Z,12.10
2019-04-27T06:50:02.302Z,12.20
2019-04-27T06:52:34.282Z,12.30
2019-04-27T06:55:06.924Z,12.30
2019-04-27T06:57:39.413Z,12.30
2019-04-27T07:00:11.222Z,12.40
2019-04-27T07:02:49.065Z,12.30
2019-04-27T07:05:23.103Z,12.30
2019-04-27T07:08:04.076Z,12.40
2019-04-27T07:10:52.109Z,12.40
2019-04-27T07:13:38.920Z,12.40
2019-04-27T07:16:12.650Z,12.30
2019-04-27T07:18:50.450Z,12.30
2019-04-27T07:21:26.490Z,12.20
2019-04-27T07:23:59.339Z,12.20
2019-04-27T07:26:43.619Z,12.20
2019-04-27T07:29:23.176Z,12.20
2019-04-27T07:32:00.367Z,12.20
2019-04-27T07:34:31.626Z,12.20
2019-04-27T07:37:02.892Z,12.30
2019-04-27T07:39:34.234Z,12.40
2019-04-27T07:42:06.081Z,12.40
2019-04-27T07:44:47.766Z,12.50
2019-04-27T07:47:24.331Z,12.70
2019-04-27T07:49:56.402Z,12.90
2019-04-27T07:52:28.706Z,13.00
2019-04-27T07:55:00.060Z,13.10
2019-04-27T07:57:31.726Z,13.20
2019-04-27T08:00:02.926Z,13.20
2019-04-27T08:02:35.896Z,13.20
2019-04-27T08:05:09.193Z,13.30
2019-04-27T08:07:40.719Z,13.40
2019-04-27T08:10:12.385Z,13.50
2019-04-27T08:12:43.797Z,13.60
2019-04-27T08:15:15.948Z,13.50
2019-04-27T08:17:49.067Z,13.40
2019-04-27T08:20:21.238Z,13.40
2019-04-27T08:22:52.666Z,13.30
2019-04-27T08:25:24.643Z,13.20
2019-04-27T08:28:12.382Z,13.20
2019-04-27T08:31:12.029Z,13.20
2019-04-27T08:33:43.923Z,13.30
2019-04-27T08:36:15.234Z,13.30
2019-04-27T08:38:46.855Z,13.30
2019-04-27T08:41:19.726Z,13.40
2019-04-27T08:43:52.940Z,13.40
2019-04-27T08:46:24.290Z,13.40
2019-04-27T08:48:55.513Z,13.40
2019-04-27T08:51:26.847Z,13.40
2019-04-27T08:53:59.118Z,13.40
2019-04-27T08:56:30.765Z,13.50
2019-04-27T08:59:04.946Z,13.60
2019-04-27T09:01:36.653Z,13.80
2019-04-27T09:04:09.246Z,13.90
2019-04-27T09:06:43.646Z,14.10
2019-04-27T09:09:34.237Z,14.20
2019-04-27T09:12:24.719Z,14.20
2019-04-27T09:15:01.400Z,14.30
2019-04-27T09:17:42.695Z,14.40
2019-04-27T09:20:21.815Z,14.50
2019-04-27T09:22:53.142Z,14.60
2019-04-27T09:25:25.198Z,14.50
2019-04-27T09:27:56.504Z,14.60
2019-04-27T09:30:29.772Z,14.60
2019-04-27T09:33:01.132Z,14.60
2019-04-27T09:35:32.847Z,14.70
2019-04-27T09:38:04.441Z,14.70
2019-04-27T09:40:36.176Z,14.70
2019-04-27T09:43:08.130Z,14.80
2019-04-27T09:45:39.444Z,15.00
2019-04-27T09:48:12.132Z,15.10
2019-04-27T09:50:43.593Z,15.20
2019-04-27T09:53:15.868Z,15.20
2019-04-27T09:55:47.155Z,15.10
2019-04-27T09:58:18.765Z,15.10
2019-04-27T10:00:50.810Z,15.10
2019-04-27T10:03:26.508Z,15.10
2019-04-27T10:05:58.020Z,15.10
2019-04-27T10:08:29.574Z,15.00
2019-04-27T10:11:01.040Z,14.90
2019-04-27T10:13:34.028Z,14.80
2019-04-27T10:16:07.352Z,14.80
2019-04-27T10:18:38.677Z,14.80
2019-04-27T10:21:10.707Z,14.80
2019-04-27T10:23:42.410Z,14.80
2019-04-27T10:26:15.783Z,14.80
2019-04-27T10:28:47.298Z,14.80
2019-04-27T10:31:18.615Z,14.80
2019-04-27T10:33:50.112Z,14.90
2019-04-27T10:36:39.981Z,14.80
2019-04-27T10:39:13.498Z,14.90
2019-04-27T10:41:46.401Z,15.00
2019-04-27T10:44:37.015Z,15.10
2019-04-27T10:47:09.438Z,15.30
2019-04-27T10:49:41.087Z,15.40
2019-04-27T10:52:13.514Z,15.40
2019-04-27T10:54:44.757Z,15.40
2019-04-27T10:57:16.403Z,15.40
2019-04-27T10:59:48.131Z,15.40
2019-04-27T11:02:19.388Z,15.40
2019-04-27T11:05:02.184Z,15.40
2019-04-27T11:07:36.386Z,15.40
2019-04-27T11:10:09.748Z,15.50
2019-04-27T11:12:41.087Z,15.40
2019-04-27T11:15:12.647Z,15.50
2019-04-27T11:17:47.250Z,15.50
2019-04-27T11:20:17.495Z,15.60
2019-04-27T11:22:49.110Z,15.80
2019-04-27T11:25:20.673Z,16.00
2019-04-27T11:27:53.119Z,16.20
2019-04-27T11:30:25.406Z,16.20
2019-04-27T11:32:59.157Z,16.20
2019-04-27T11:35:54.956Z,16.20
2019-04-27T11:38:26.692Z,16.20
2019-04-27T11:40:58.430Z,16.30
2019-04-27T11:43:30.669Z,16.40
2019-04-27T11:46:02.081Z,16.50
2019-04-27T11:48:33.457Z,16.60
2019-04-27T11:51:06.897Z,16.60
2019-04-27T11:53:38.867Z,16.60
2019-04-27T11:56:10.230Z,16.50
2019-04-27T11:58:41.944Z,16.40
2019-04-27T12:01:13.202Z,16.40
2019-04-27T12:03:44.843Z,16.30
2019-04-27T12:06:16.120Z,16.20
2019-04-27T12:08:48.470Z,16.20
2019-04-27T12:11:20.162Z,16.30
2019-04-27T12:13:52.919Z,16.30
2019-04-27T12:16:25.821Z,16.40
2019-04-27T12:18:57.350Z,16.50
2019-04-27T12:21:28.562Z,16.60
2019-04-27T12:24:00.678Z,16.70
2019-04-27T12:26:44.999Z,16.70
2019-04-27T12:29:18.988Z,16.70
2019-04-27T12:31:51.049Z,16.60
2019-04-27T12:34:22.489Z,16.50
2019-04-27T12:36:53.913Z,16.40
2019-04-27T12:39:26.782Z,16.40
2019-04-27T12:41:58.199Z,16.30
2019-04-27T12:44:30.197Z,16.20
2019-04-27T12:47:02.716Z,16.20
2019-04-27T12:49:36.271Z,16.20
2019-04-27T12:52:08.741Z,16.20
2019-04-27T12:54:46.811Z,16.10
2019-04-27T12:57:26.926Z,16.10
2019-04-27T13:00:23.063Z,16.00
2019-04-27T13:02:55.593Z,16.00
2019-04-27T13:05:29.167Z,16.00
2019-04-27T13:08:01.392Z,16.00
2019-04-27T13:10:33.540Z,16.00
2019-04-27T13:13:06.317Z,15.90
2019-04-27T13:15:38.138Z,15.90
2019-04-27T13:18:10.274Z,15.90
2019-04-27T13:20:42.110Z,16.00
2019-04-27T13:23:14.132Z,16.00
2019-04-27T13:25:46.123Z,16.00
2019-04-27T13:28:18.668Z,16.10
2019-04-27T13:30:50.488Z,16.20
2019-04-27T13:33:22.231Z,16.20
2019-04-27T13:35:53.883Z,16.20
2019-04-27T13:38:26.734Z,16.20
2019-04-27T13:41:08.831Z,16.10
2019-04-27T13:43:42.574Z,16.10
2019-04-27T13:46:48.580Z,16.00
2019-04-27T13:49:38.427Z,16.00
2019-04-27T13:52:19.964Z,16.00
2019-04-27T13:54:51.637Z,16.00
2019-04-27T13:57:23.043Z,16.10
2019-04-27T13:59:54.788Z,16.20
2019-04-27T14:02:32.078Z,16.30
2019-04-27T14:04:58.276Z,16.40
2019-04-27T14:07:29.552Z,16.50
2019-04-27T14:10:01.712Z,16.60
2019-04-27T14:12:33.432Z,16.70
2019-04-27T14:15:05.689Z,16.80
2019-04-27T14:17:39.167Z,16.70
2019-04-27T14:20:10.628Z,16.70
2019-04-27T14:22:42.526Z,16.70
2019-04-27T14:25:14.575Z,16.70
2019-04-27T14:27:46.048Z,16.70
2019-04-27T14:30:19.187Z,16.70
2019-04-27T14:32:49.688Z,16.80
2019-04-27T14:35:20.847Z,16.70
2019-04-27T14:37:52.817Z,16.70
2019-04-27T14:40:24.097Z,16.70
2019-04-27T14:42:55.812Z,16.70
2019-04-27T14:45:28.613Z,16.70
2019-04-27T14:48:00.334Z,16.60
2019-04-27T14:50:32.291Z,16.60
2019-04-27T14:53:03.846Z,16.50
2019-04-27T14:55:35.619Z,16.50
2019-04-27T14:58:08.705Z,16.50
2019-04-27T15:00:41.520Z,16.50
2019-04-27T15:03:13.464Z,16.40
2019-04-27T15:05:45.604Z,16.40
2019-04-27T15:08:17.062Z,16.30
2019-04-27T15:10:48.465Z,16.20
2019-04-27T15:13:19.876Z,16.20
2019-04-27T15:15:51.179Z,16.20
2019-04-27T15:18:24.475Z,16.20
2019-04-27T15:20:58.569Z,16.20
2019-04-27T15:23:30.769Z,16.20
2019-04-27T15:26:03.678Z,16.20
2019-04-27T15:28:36.636Z,16.20
2019-04-27T15:31:27.232Z,16.10
2019-04-27T15:34:18.197Z,16.00
2019-04-27T15:37:15.578Z,16.00
2019-04-27T15:40:24.274Z,15.90
2019-04-27T15:43:02.235Z,15.90
2019-04-27T15:45:33.975Z,15.80
2019-04-27T15:48:05.698Z,15.70
2019-04-27T15:50:38.700Z,15.80
2019-04-27T15:53:12.635Z,15.80
2019-04-27T15:55:43.297Z,15.80
2019-04-27T15:58:20.992Z,15.80
2019-04-27T16:00:51.306Z,15.80
2019-04-27T16:03:22.674Z,15.80
2019-04-27T16:05:53.160Z,15.80
2019-04-27T16:08:24.457Z,15.90
2019-04-27T16:10:56.114Z,15.90
2019-04-27T16:13:32.907Z,15.90
2019-04-27T16:16:00.033Z,15.90
2019-04-27T16:18:32.663Z,15.90
2019-04-27T16:21:07.137Z,15.90
2019-04-27T16:23:41.791Z,15.90
2019-04-27T16:26:14.846Z,16.00
2019-04-27T16:28:49.571Z,15.90
2019-04-27T16:31:18.664Z,15.90
2019-04-27T16:33:54.026Z,15.90
2019-04-27T16:36:22.803Z,15.90
2019-04-27T16:39:03.717Z,15.90
2019-04-27T16:41:37.482Z,15.90
2019-04-27T16:44:10.915Z,15.90
2019-04-27T16:46:50.593Z,15.90
2019-04-27T16:49:28.903Z,15.90
2019-04-27T16:52:15.821Z,15.80
2019-04-27T16:54:43.154Z,15.80
2019-04-27T16:57:32.579Z,15.80
2019-04-27T17:00:18.260Z,15.80
2019-04-27T17:03:01.371Z,15.80
2019-04-27T17:08:43.151Z,15.70
2019-04-27T17:11:30.844Z,15.70
2019-04-27T17:18:24.496Z,15.70
2019-04-27T17:21:16.091Z,15.70
2019-04-27T17:24:02.695Z,15.60
2019-04-27T17:27:02.544Z,15.70
2019-04-27T17:30:08.903Z,15.70
2019-04-27T17:33:54.181Z,15.70
2019-04-27T17:37:32.254Z,15.70
2019-04-27T17:40:29.739Z,15.70
2019-04-27T17:43:08.026Z,15.60
2019-04-27T17:46:25.405Z,15.60
2019-04-27T17:49:00.007Z,15.70
2019-04-27T17:53:02.208Z,15.70
2019-04-27T17:54:58.942Z,15.60
2019-04-27T17:57:38.768Z,15.30
2019-04-27T18:01:53.811Z,15.00
2019-04-27T18:04:01.565Z,14.80
2019-04-27T18:06:48.433Z,14.60
2019-04-27T18:09:58.654Z,14.50
2019-04-27T18:12:51.301Z,14.40
2019-04-27T18:15:39.763Z,14.30
2019-04-27T18:19:00.090Z,14.20
2019-04-27T18:22:39.805Z,14.20
2019-04-27T18:29:00.004Z,14.00
2019-04-27T18:31:46.468Z,13.90
2019-04-27T18:34:19.461Z,13.80
2019-04-27T18:36:53.086Z,13.70
2019-04-27T18:39:58.491Z,13.60
2019-04-27T18:42:42.642Z,13.50
2019-04-27T18:45:20.309Z,13.40
2019-04-27T18:48:13.723Z,13.30
2019-04-27T18:51:11.843Z,13.10
2019-04-27T18:53:58.832Z,12.90
2019-04-27T18:57:02.823Z,12.60
2019-04-27T19:12:12.411Z,11.90
2019-04-27T19:24:16.184Z,11.60
2019-04-27T19:27:45.063Z,11.50
2019-04-27T19:30:51.769Z,11.40
2019-04-27T19:53:34.283Z,11.70
2019-04-27T19:56:06.942Z,11.70
2019-04-27T19:58:43.327Z,11.70
2019-04-27T20:01:18.824Z,11.70
2019-04-27T20:04:06.363Z,11.70
2019-04-27T20:06:38.478Z,11.80
2019-04-27T20:09:24.512Z,11.90
2019-04-27T20:11:56.193Z,11.90
2019-04-27T20:14:27.808Z,12.10
2019-04-27T20:16:59.692Z,12.10
2019-04-27T20:19:31.575Z,12.10
2019-04-27T20:22:03.694Z,12.10
2019-04-27T20:24:35.134Z,12.10
2019-04-27T20:27:06.493Z,12.00
2019-04-27T20:29:38.299Z,11.90
2019-04-27T20:32:11.353Z,11.80
2019-04-27T20:34:44.440Z,11.70
2019-04-27T20:37:17.203Z,11.70
2019-04-27T20:39:51.239Z,11.70
2019-04-27T20:42:22.816Z,11.70
2019-04-27T20:44:54.100Z,11.60
2019-04-27T20:47:26.060Z,11.60
2019-04-27T20:49:57.482Z,11.50
2019-04-27T20:52:50.598Z,11.50
2019-04-27T20:55:22.061Z,11.50
2019-04-27T20:58:01.700Z,11.40
2019-04-27T21:00:27.098Z,11.40
2019-04-27T21:03:06.172Z,11.40
2019-04-27T21:05:51.043Z,11.40
2019-04-27T21:08:23.244Z,11.40
2019-04-27T21:10:54.772Z,11.40
2019-04-27T21:13:26.348Z,11.40
2019-04-27T21:15:57.843Z,11.40
2019-04-27T21:18:29.406Z,11.50
2019-04-27T21:21:01.403Z,11.60
2019-04-27T21:23:33.152Z,11.50
2019-04-27T21:26:04.689Z,11.50
2019-04-27T21:28:36.322Z,11.40
2019-04-27T21:31:07.850Z,11.40
2019-04-27T21:33:40.880Z,11.40
2019-04-27T21:36:12.626Z,11.40
2019-04-27T21:38:43.892Z,11.40
2019-04-27T21:41:15.500Z,11.30
2019-04-27T21:43:46.771Z,11.20
2019-04-27T21:46:18.087Z,11.20
2019-04-27T21:48:49.911Z,11.10
2019-04-27T21:51:21.786Z,11.00
2019-04-27T21:54:09.846Z,11.00
2019-04-27T21:56:41.678Z,11.00
2019-04-27T21:59:13.406Z,11.00
2019-04-27T22:01:45.432Z,11.10
2019-04-27T22:04:17.139Z,11.10
2019-04-27T22:06:48.437Z,11.10
2019-04-27T22:09:19.692Z,11.10
2019-04-27T22:11:51.623Z,11.10
2019-04-27T22:14:23.337Z,11.10
2019-04-27T22:16:54.853Z,11.10
2019-04-27T22:19:26.130Z,11.10
2019-04-27T22:21:58.087Z,11.00
2019-04-27T22:24:36.247Z,11.00
2019-04-27T22:27:08.199Z,11.00
2019-04-27T22:29:40.119Z,11.00
2019-04-27T22:32:11.776Z,11.00
2019-04-27T22:34:43.771Z,11.00
2019-04-27T22:37:15.320Z,11.00
2019-04-27T22:40:18.074Z,11.00
2019-04-27T22:43:01.612Z,10.90
2019-04-27T22:45:33.178Z,10.90
2019-04-27T22:48:04.848Z,10.80
2019-04-27T22:50:36.443Z,10.70
2019-04-27T22:53:08.482Z,10.70
2019-04-27T22:55:59.132Z,10.70
2019-04-27T22:58:30.546Z,10.70
2019-04-27T23:01:20.047Z,10.60
2019-04-27T23:03:53.362Z,10.50
2019-04-27T23:06:24.241Z,10.30
2019-04-27T23:08:55.341Z,10.20
2019-04-27T23:11:26.931Z,10.10
2019-04-27T23:13:58.117Z,10.10
2019-04-27T23:16:30.998Z,10.10
2019-04-27T23:19:02.203Z,10.10
2019-04-27T23:21:33.819Z,10.10
2019-04-27T23:24:05.523Z,10.10
2019-04-27T23:26:36.750Z,10.10
2019-04-27T23:29:13.630Z,10.10
2019-04-27T23:32:01.554Z,10.10
2019-04-27T23:34:32.523Z,10.10
2019-04-27T23:37:03.778Z,10.10
2019-04-27T23:39:35.485Z,10.10
2019-04-27T23:42:07.120Z,10.10
2019-04-27T23:44:38.787Z,10.20
2019-04-27T23:47:10.356Z,10.40
2019-04-27T23:49:41.886Z,10.40
2019-04-27T23:52:18.044Z,10.30
2019-04-27T23:54:51.171Z,10.20
2019-04-27T23:57:22.919Z,10.10
2019-04-27T23:59:54.410Z,10.10
